sensor_id;sensor_type;location;lat;lon;timestamp;pressure;altitude;pressure_sealevel;temperature;humidity
50672;BME280;46021;55.882;37.654;2023-04-27T00:02:00;98758.69;;;8.13;71.42
50672;BME280;46021;55.882;37.654;2023-04-27T00:04:29;98758.72;;;8.11;71.86
50672;BME280;46021;55.882;37.654;2023-04-27T00:06:56;98763.69;;;8.17;71.61
50672;BME280;46021;55.882;37.654;2023-04-27T00:09:23;98766.34;;;8.16;70.93
50672;BME280;46021;55.882;37.654;2023-04-27T00:11:50;98757.84;;;8.11;71.48
50672;BME280;46021;55.882;37.654;2023-04-27T00:14:17;98768.31;;;8.09;71.33
50672;BME280;46021;55.882;37.654;2023-04-27T00:16:46;98776.22;;;8.06;71.55
50672;BME280;46021;55.882;37.654;2023-04-27T00:19:13;98770.19;;;8.06;71.87
50672;BME280;46021;55.882;37.654;2023-04-27T00:21:42;98769.31;;;8.05;71.34
50672;BME280;46021;55.882;37.654;2023-04-27T00:24:09;98773.56;;;8.08;70.95
50672;BME280;46021;55.882;37.654;2023-04-27T00:26:36;98776.22;;;8.06;71.86
50672;BME280;46021;55.882;37.654;2023-04-27T00:29:03;98775.66;;;7.98;71.29
50672;BME280;46021;55.882;37.654;2023-04-27T00:31:30;98781.72;;;7.97;71.49
50672;BME280;46021;55.882;37.654;2023-04-27T00:33:58;98781.94;;;7.91;71.79
50672;BME280;46021;55.882;37.654;2023-04-27T00:36:25;98779.47;;;7.88;71.95
50672;BME280;46021;55.882;37.654;2023-04-27T00:38:54;98778.78;;;7.83;71.81
50672;BME280;46021;55.882;37.654;2023-04-27T00:41:21;98786.72;;;7.78;71.78
50672;BME280;46021;55.882;37.654;2023-04-27T00:43:48;98793.88;;;7.71;71.97
50672;BME280;46021;55.882;37.654;2023-04-27T00:46:15;98781.22;;;7.62;72.53
50672;BME280;46021;55.882;37.654;2023-04-27T00:48:45;98794.03;;;7.67;72.33
50672;BME280;46021;55.882;37.654;2023-04-27T00:51:12;98794.03;;;7.67;72.02
50672;BME280;46021;55.882;37.654;2023-04-27T00:53:40;98794.78;;;7.70;72.75
50672;BME280;46021;55.882;37.654;2023-04-27T00:56:09;98792.09;;;7.73;72.63
50672;BME280;46021;55.882;37.654;2023-04-27T00:58:36;98791.91;;;7.78;72.39
50672;BME280;46021;55.882;37.654;2023-04-27T01:01:04;98795.34;;;7.78;72.07
50672;BME280;46021;55.882;37.654;2023-04-27T01:03:31;98792.81;;;7.77;72.38
50672;BME280;46021;55.882;37.654;2023-04-27T01:05:59;98786.91;;;7.73;72.38
50672;BME280;46021;55.882;37.654;2023-04-27T01:08:27;98802.56;;;7.70;72.09
50672;BME280;46021;55.882;37.654;2023-04-27T01:10:54;98789.81;;;7.64;72.23
50672;BME280;46021;55.882;37.654;2023-04-27T01:13:23;98799.13;;;7.70;72.68
50672;BME280;46021;55.882;37.654;2023-04-27T01:15:50;98796.34;;;7.74;72.42
50672;BME280;46021;55.882;37.654;2023-04-27T01:18:18;98794.59;;;7.75;72.42
50672;BME280;46021;55.882;37.654;2023-04-27T01:20:45;98794.69;;;7.73;72.19
50672;BME280;46021;55.882;37.654;2023-04-27T01:23:14;98793.06;;;7.69;72.63
50672;BME280;46021;55.882;37.654;2023-04-27T01:25:42;98790.47;;;7.69;72.74
50672;BME280;46021;55.882;37.654;2023-04-27T01:28:09;98793.94;;;7.70;72.43
50672;BME280;46021;55.882;37.654;2023-04-27T01:30:37;98781.06;;;7.67;71.96
50672;BME280;46021;55.882;37.654;2023-04-27T01:33:04;98796.56;;;7.68;72.38
50672;BME280;46021;55.882;37.654;2023-04-27T01:35:31;98785.44;;;7.65;72.12
50672;BME280;46021;55.882;37.654;2023-04-27T01:38:00;98779.75;;;7.55;72.66
50672;BME280;46021;55.882;37.654;2023-04-27T01:40:29;98785.75;;;7.55;72.78
50672;BME280;46021;55.882;37.654;2023-04-27T01:42:56;98790.19;;;7.52;72.59
50672;BME280;46021;55.882;37.654;2023-04-27T01:45:23;98788.72;;;7.45;72.45
50672;BME280;46021;55.882;37.654;2023-04-27T01:47:52;98793.31;;;7.36;72.82
50672;BME280;46021;55.882;37.654;2023-04-27T01:50:20;98798.75;;;7.29;73.00
50672;BME280;46021;55.882;37.654;2023-04-27T01:52:47;98799.78;;;7.23;73.13
50672;BME280;46021;55.882;37.654;2023-04-27T01:55:14;98804.28;;;7.18;73.35
50672;BME280;46021;55.882;37.654;2023-04-27T01:57:43;98813.22;;;7.09;74.15
50672;BME280;46021;55.882;37.654;2023-04-27T02:00:12;98810.00;;;7.01;73.58
50672;BME280;46021;55.882;37.654;2023-04-27T02:02:47;98809.22;;;6.97;74.49
50672;BME280;46021;55.882;37.654;2023-04-27T02:05:16;98810.09;;;6.98;74.51
50672;BME280;46021;55.882;37.654;2023-04-27T02:07:45;98810.00;;;7.01;74.39
50672;BME280;46021;55.882;37.654;2023-04-27T02:10:12;98811.66;;;7.03;74.98
50672;BME280;46021;55.882;37.654;2023-04-27T02:12:39;98813.25;;;7.08;74.71
50672;BME280;46021;55.882;37.654;2023-04-27T02:15:09;98813.34;;;7.05;74.24
50672;BME280;46021;55.882;37.654;2023-04-27T02:17:37;98811.66;;;7.03;74.55
50672;BME280;46021;55.882;37.654;2023-04-27T02:20:05;98820.19;;;7.07;74.03
50672;BME280;46021;55.882;37.654;2023-04-27T02:22:33;98817.47;;;7.10;74.37
50672;BME280;46021;55.882;37.654;2023-04-27T02:25:01;98811.47;;;7.10;74.43
50672;BME280;46021;55.882;37.654;2023-04-27T02:27:29;98826.00;;;7.14;74.58
50672;BME280;46021;55.882;37.654;2023-04-27T02:29:57;98823.41;;;7.14;74.26
50672;BME280;46021;55.882;37.654;2023-04-27T02:32:25;98824.09;;;7.20;74.86
50672;BME280;46021;55.882;37.654;2023-04-27T02:34:53;98831.41;;;7.34;75.11
50672;BME280;46021;55.882;37.654;2023-04-27T02:37:21;98836.88;;;7.52;75.07
50672;BME280;46021;55.882;37.654;2023-04-27T02:39:48;98841.47;;;7.70;75.65
50672;BME280;46021;55.882;37.654;2023-04-27T02:42:15;98840.72;;;7.92;76.02
50672;BME280;46021;55.882;37.654;2023-04-27T02:44:43;98845.19;;;8.13;76.29
50672;BME280;46021;55.882;37.654;2023-04-27T02:47:11;98846.94;;;8.36;75.96
50672;BME280;46021;55.882;37.654;2023-04-27T02:49:40;98845.34;;;8.57;75.65
50672;BME280;46021;55.882;37.654;2023-04-27T02:52:07;98842.84;;;8.78;75.93
50672;BME280;46021;55.882;37.654;2023-04-27T02:54:34;98841.91;;;9.03;75.61
50672;BME280;46021;55.882;37.654;2023-04-27T02:57:02;98849.66;;;9.26;75.48
50672;BME280;46021;55.882;37.654;2023-04-27T02:59:29;98854.03;;;9.46;74.81
50672;BME280;46021;55.882;37.654;2023-04-27T03:01:56;98849.69;;;9.67;74.65
50672;BME280;46021;55.882;37.654;2023-04-27T03:04:24;98852.19;;;9.91;74.33
50672;BME280;46021;55.882;37.654;2023-04-27T03:06:53;98857.66;;;10.05;72.95
50672;BME280;46021;55.882;37.654;2023-04-27T03:09:21;98854.25;;;10.24;72.71
50672;BME280;46021;55.882;37.654;2023-04-27T03:11:49;98864.56;;;10.47;72.39
50672;BME280;46021;55.882;37.654;2023-04-27T03:14:17;98863.28;;;10.75;72.43
50672;BME280;46021;55.882;37.654;2023-04-27T03:16:44;98866.47;;;11.01;71.75
50672;BME280;46021;55.882;37.654;2023-04-27T03:19:12;98874.38;;;11.36;70.75
50672;BME280;46021;55.882;37.654;2023-04-27T03:21:39;98866.75;;;11.67;70.69
50672;BME280;46021;55.882;37.654;2023-04-27T03:24:09;98865.91;;;12.02;70.85
50672;BME280;46021;55.882;37.654;2023-04-27T03:26:36;98875.66;;;12.33;68.89
50672;BME280;46021;55.882;37.654;2023-04-27T03:29:03;98866.25;;;12.62;68.88
50672;BME280;46021;55.882;37.654;2023-04-27T03:31:31;98872.72;;;13.04;67.30
50672;BME280;46021;55.882;37.654;2023-04-27T03:33:58;98874.22;;;13.24;64.76
50672;BME280;46021;55.882;37.654;2023-04-27T03:36:25;98871.00;;;13.51;64.65
50672;BME280;46021;55.882;37.654;2023-04-27T03:38:53;98877.06;;;13.68;63.21
50672;BME280;46021;55.882;37.654;2023-04-27T03:41:22;98874.84;;;13.76;62.21
50672;BME280;46021;55.882;37.654;2023-04-27T03:43:49;98871.47;;;13.74;61.04
50672;BME280;46021;55.882;37.654;2023-04-27T03:46:18;98877.97;;;13.97;61.32
50672;BME280;46021;55.882;37.654;2023-04-27T03:48:45;98888.81;;;14.21;58.77
50672;BME280;46021;55.882;37.654;2023-04-27T03:51:12;98880.97;;;14.50;59.82
50672;BME280;46021;55.882;37.654;2023-04-27T03:53:43;98888.31;;;14.88;59.40
50672;BME280;46021;55.882;37.654;2023-04-27T03:56:11;98881.13;;;15.04;58.22
50672;BME280;46021;55.882;37.654;2023-04-27T03:58:39;98873.72;;;15.38;58.54
50672;BME280;46021;55.882;37.654;2023-04-27T04:01:15;98870.13;;;15.93;58.00
50672;BME280;46021;55.882;37.654;2023-04-27T04:03:44;98887.84;;;16.55;57.59
50672;BME280;46021;55.882;37.654;2023-04-27T04:06:12;98887.91;;;17.05;55.43
50672;BME280;46021;55.882;37.654;2023-04-27T04:08:40;98889.63;;;17.54;55.03
50672;BME280;46021;55.882;37.654;2023-04-27T04:11:07;98874.47;;;18.05;51.30
50672;BME280;46021;55.882;37.654;2023-04-27T04:13:35;98902.16;;;18.57;52.54
50672;BME280;46021;55.882;37.654;2023-04-27T04:16:07;98903.41;;;18.87;50.20
50672;BME280;46021;55.882;37.654;2023-04-27T04:18:35;98895.44;;;19.21;50.94
50672;BME280;46021;55.882;37.654;2023-04-27T04:21:03;98896.75;;;19.70;49.97
50672;BME280;46021;55.882;37.654;2023-04-27T04:23:31;98894.22;;;19.68;47.15
50672;BME280;46021;55.882;37.654;2023-04-27T04:25:58;98900.81;;;19.31;46.24
50672;BME280;46021;55.882;37.654;2023-04-27T04:28:31;98907.09;;;19.07;46.86
50672;BME280;46021;55.882;37.654;2023-04-27T04:31:00;98902.06;;;19.15;46.08
50672;BME280;46021;55.882;37.654;2023-04-27T04:33:29;98908.34;;;19.46;46.53
50672;BME280;46021;55.882;37.654;2023-04-27T04:35:57;98904.19;;;19.21;45.63
50672;BME280;46021;55.882;37.654;2023-04-27T04:38:24;98900.22;;;19.27;45.70
50672;BME280;46021;55.882;37.654;2023-04-27T04:40:51;98901.69;;;19.63;46.70
50672;BME280;46021;55.882;37.654;2023-04-27T04:43:18;98895.50;;;20.28;45.39
50672;BME280;46021;55.882;37.654;2023-04-27T04:45:46;98894.78;;;20.98;43.82
50672;BME280;46021;55.882;37.654;2023-04-27T04:48:13;98902.88;;;21.67;40.75
50672;BME280;46021;55.882;37.654;2023-04-27T04:50:42;98904.94;;;22.22;42.57
50672;BME280;46021;55.882;37.654;2023-04-27T04:53:11;98899.72;;;22.49;41.60
50672;BME280;46021;55.882;37.654;2023-04-27T04:55:38;98903.72;;;22.73;40.95
50672;BME280;46021;55.882;37.654;2023-04-27T04:58:07;98901.75;;;22.75;40.21
50672;BME280;46021;55.882;37.654;2023-04-27T05:00:34;98904.63;;;23.19;40.06
50672;BME280;46021;55.882;37.654;2023-04-27T05:03:01;98911.31;;;23.51;39.21
50672;BME280;46021;55.882;37.654;2023-04-27T05:05:29;98903.75;;;23.92;38.83
50672;BME280;46021;55.882;37.654;2023-04-27T05:07:57;98889.75;;;24.34;35.36
50672;BME280;46021;55.882;37.654;2023-04-27T05:10:24;98902.97;;;24.70;37.05
50672;BME280;46021;55.882;37.654;2023-04-27T05:12:51;98897.38;;;24.89;36.37
50672;BME280;46021;55.882;37.654;2023-04-27T05:15:18;98900.19;;;25.14;35.79
50672;BME280;46021;55.882;37.654;2023-04-27T05:17:46;98912.28;;;25.43;35.50
50672;BME280;46021;55.882;37.654;2023-04-27T05:20:13;98910.00;;;25.64;34.96
50672;BME280;46021;55.882;37.654;2023-04-27T05:22:40;98905.31;;;25.58;34.14
50672;BME280;46021;55.882;37.654;2023-04-27T05:25:09;98908.00;;;25.91;34.05
50672;BME280;46021;55.882;37.654;2023-04-27T05:27:36;98905.72;;;26.13;33.76
50672;BME280;46021;55.882;37.654;2023-04-27T05:30:04;98907.84;;;26.42;33.70
50672;BME280;46021;55.882;37.654;2023-04-27T05:32:32;98914.97;;;26.82;33.27
50672;BME280;46021;55.882;37.654;2023-04-27T05:35:01;98912.88;;;27.01;32.29
50672;BME280;46021;55.882;37.654;2023-04-27T05:37:29;98912.16;;;27.15;32.25
50672;BME280;46021;55.882;37.654;2023-04-27T05:39:56;98919.75;;;27.43;31.82
50672;BME280;46021;55.882;37.654;2023-04-27T05:42:24;98916.47;;;27.25;31.20
50672;BME280;46021;55.882;37.654;2023-04-27T05:44:52;98911.19;;;27.71;31.59
50672;BME280;46021;55.882;37.654;2023-04-27T05:47:19;98918.06;;;27.96;30.86
50672;BME280;46021;55.882;37.654;2023-04-27T05:49:49;98917.66;;;27.76;28.64
50672;BME280;46021;55.882;37.654;2023-04-27T05:52:17;98912.41;;;27.37;29.62
50672;BME280;46021;55.882;37.654;2023-04-27T05:54:45;98913.31;;;27.52;29.40
50672;BME280;46021;55.882;37.654;2023-04-27T05:57:13;98916.16;;;27.19;29.07
50672;BME280;46021;55.882;37.654;2023-04-27T05:59:42;98910.41;;;26.11;28.60
50672;BME280;46021;55.882;37.654;2023-04-27T06:02:09;98907.31;;;24.27;29.67
50672;BME280;46021;55.882;37.654;2023-04-27T06:04:36;98914.06;;;22.76;30.99
50672;BME280;46021;55.882;37.654;2023-04-27T06:07:06;98904.81;;;21.55;32.65
50672;BME280;46021;55.882;37.654;2023-04-27T06:09:33;98914.72;;;20.72;33.48
50672;BME280;46021;55.882;37.654;2023-04-27T06:12:01;98917.84;;;19.93;34.45
50672;BME280;46021;55.882;37.654;2023-04-27T06:14:29;98916.78;;;19.29;35.67
50672;BME280;46021;55.882;37.654;2023-04-27T06:16:57;98920.66;;;18.80;36.46
50672;BME280;46021;55.882;37.654;2023-04-27T06:19:25;98910.28;;;18.31;37.43
50672;BME280;46021;55.882;37.654;2023-04-27T06:21:52;98903.34;;;17.71;39.02
50672;BME280;46021;55.882;37.654;2023-04-27T06:24:19;98913.34;;;17.54;38.29
50672;BME280;46021;55.882;37.654;2023-04-27T06:26:46;98909.41;;;17.36;38.57
50672;BME280;46021;55.882;37.654;2023-04-27T06:29:14;98927.13;;;17.34;39.22
50672;BME280;46021;55.882;37.654;2023-04-27T06:31:41;98919.59;;;17.17;39.97
50672;BME280;46021;55.882;37.654;2023-04-27T06:34:10;98925.59;;;17.19;39.85
50672;BME280;46021;55.882;37.654;2023-04-27T06:36:37;98935.38;;;17.17;40.68
50672;BME280;46021;55.882;37.654;2023-04-27T06:39:04;98934.34;;;17.06;41.23
50672;BME280;46021;55.882;37.654;2023-04-27T06:41:31;98918.97;;;17.00;40.80
50672;BME280;46021;55.882;37.654;2023-04-27T06:43:59;98931.81;;;17.05;40.94
50672;BME280;46021;55.882;37.654;2023-04-27T06:46:26;98928.69;;;17.00;41.40
50672;BME280;46021;55.882;37.654;2023-04-27T06:48:53;98936.25;;;17.04;41.44
50672;BME280;46021;55.882;37.654;2023-04-27T06:51:22;98942.13;;;17.08;41.94
50672;BME280;46021;55.882;37.654;2023-04-27T06:53:49;98929.50;;;17.00;41.10
50672;BME280;46021;55.882;37.654;2023-04-27T06:56:17;98944.34;;;17.01;41.26
50672;BME280;46021;55.882;37.654;2023-04-27T06:58:44;98945.22;;;16.89;41.06
50672;BME280;46021;55.882;37.654;2023-04-27T07:01:11;98947.13;;;16.87;41.60
50672;BME280;46021;55.882;37.654;2023-04-27T07:03:38;98944.88;;;16.81;41.70
50672;BME280;46021;55.882;37.654;2023-04-27T07:06:05;98936.78;;;16.58;42.12
50672;BME280;46021;55.882;37.654;2023-04-27T07:08:34;98945.41;;;16.60;41.78
50672;BME280;46021;55.882;37.654;2023-04-27T07:11:01;98941.72;;;16.50;41.86
50672;BME280;46021;55.882;37.654;2023-04-27T07:13:29;98946.03;;;16.51;42.03
50672;BME280;46021;55.882;37.654;2023-04-27T07:15:56;98940.44;;;16.55;41.58
50672;BME280;46021;55.882;37.654;2023-04-27T07:18:23;98942.16;;;16.56;42.15
50672;BME280;46021;55.882;37.654;2023-04-27T07:20:52;98939.00;;;16.64;41.35
50672;BME280;46021;55.882;37.654;2023-04-27T07:23:20;98940.34;;;16.57;41.40
50672;BME280;46021;55.882;37.654;2023-04-27T07:25:48;98937.91;;;16.54;41.75
50672;BME280;46021;55.882;37.654;2023-04-27T07:28:16;98939.19;;;16.61;41.90
50672;BME280;46021;55.882;37.654;2023-04-27T07:30:44;98942.34;;;16.79;41.64
50672;BME280;46021;55.882;37.654;2023-04-27T07:33:11;98939.94;;;16.89;41.55
50672;BME280;46021;55.882;37.654;2023-04-27T07:35:39;98932.59;;;16.94;41.50
50672;BME280;46021;55.882;37.654;2023-04-27T07:38:06;98946.03;;;17.02;40.56
50672;BME280;46021;55.882;37.654;2023-04-27T07:40:33;98955.94;;;16.99;40.97
50672;BME280;46021;55.882;37.654;2023-04-27T07:43:02;98954.28;;;16.98;40.48
50672;BME280;46021;55.882;37.654;2023-04-27T07:45:30;98948.25;;;16.95;40.02
50672;BME280;46021;55.882;37.654;2023-04-27T07:47:58;98943.63;;;16.99;40.24
50672;BME280;46021;55.882;37.654;2023-04-27T07:50:27;98942.03;;;17.09;40.51
50672;BME280;46021;55.882;37.654;2023-04-27T07:52:55;98953.59;;;17.20;39.75
50672;BME280;46021;55.882;37.654;2023-04-27T07:55:23;98961.38;;;17.21;40.54
50672;BME280;46021;55.882;37.654;2023-04-27T07:57:51;98960.84;;;17.29;40.33
50672;BME280;46021;55.882;37.654;2023-04-27T08:00:20;98949.66;;;17.38;40.39
50672;BME280;46021;55.882;37.654;2023-04-27T08:02:49;98947.34;;;17.58;40.34
50672;BME280;46021;55.882;37.654;2023-04-27T08:05:16;98950.31;;;17.66;39.31
50672;BME280;46021;55.882;37.654;2023-04-27T08:07:44;98951.41;;;17.74;39.20
50672;BME280;46021;55.882;37.654;2023-04-27T08:10:11;98955.25;;;17.95;39.37
50672;BME280;46021;55.882;37.654;2023-04-27T08:12:39;98950.38;;;18.12;39.28
50672;BME280;46021;55.882;37.654;2023-04-27T08:15:06;98956.06;;;18.19;38.65
50672;BME280;46021;55.882;37.654;2023-04-27T08:17:35;98949.84;;;18.31;38.78
50672;BME280;46021;55.882;37.654;2023-04-27T08:20:06;98943.72;;;18.31;38.74
50672;BME280;46021;55.882;37.654;2023-04-27T08:22:34;98945.69;;;18.51;38.83
50672;BME280;46021;55.882;37.654;2023-04-27T08:25:01;98940.56;;;18.61;37.54
50672;BME280;46021;55.882;37.654;2023-04-27T08:27:29;98944.16;;;18.60;37.83
50672;BME280;46021;55.882;37.654;2023-04-27T08:29:56;98939.34;;;18.54;37.06
50672;BME280;46021;55.882;37.654;2023-04-27T08:32:25;98954.03;;;18.69;37.71
50672;BME280;46021;55.882;37.654;2023-04-27T08:34:54;98946.22;;;18.68;37.23
50672;BME280;46021;55.882;37.654;2023-04-27T08:37:21;98948.16;;;18.77;36.70
50672;BME280;46021;55.882;37.654;2023-04-27T08:39:48;98949.13;;;18.99;37.44
50672;BME280;46021;55.882;37.654;2023-04-27T08:42:16;98937.00;;;19.19;37.06
50672;BME280;46021;55.882;37.654;2023-04-27T08:44:43;98936.69;;;19.56;37.32
50672;BME280;46021;55.882;37.654;2023-04-27T08:47:10;98938.53;;;19.88;37.18
50672;BME280;46021;55.882;37.654;2023-04-27T08:49:37;98939.63;;;20.90;37.22
50672;BME280;46021;55.882;37.654;2023-04-27T08:52:11;98934.38;;;22.57;34.52
50672;BME280;46021;55.882;37.654;2023-04-27T08:54:39;98934.03;;;24.35;34.09
50672;BME280;46021;55.882;37.654;2023-04-27T08:57:10;98919.34;;;25.77;29.37
50672;BME280;46021;55.882;37.654;2023-04-27T08:59:38;98939.34;;;26.88;29.33
50672;BME280;46021;55.882;37.654;2023-04-27T09:02:06;98939.03;;;27.93;28.13
50672;BME280;46021;55.882;37.654;2023-04-27T09:04:44;98929.72;;;28.94;27.27
50672;BME280;46021;55.882;37.654;2023-04-27T09:07:13;98927.00;;;29.76;26.09
50672;BME280;46021;55.882;37.654;2023-04-27T09:09:42;98937.38;;;29.64;25.17
50672;BME280;46021;55.882;37.654;2023-04-27T09:12:16;98930.63;;;29.89;23.94
50672;BME280;46021;55.882;37.654;2023-04-27T09:14:54;98932.25;;;29.47;24.57
50672;BME280;46021;55.882;37.654;2023-04-27T09:17:24;98928.09;;;29.81;24.42
50672;BME280;46021;55.882;37.654;2023-04-27T09:20:02;98927.66;;;30.27;24.68
50672;BME280;46021;55.882;37.654;2023-04-27T09:22:43;98929.22;;;30.71;22.68
50672;BME280;46021;55.882;37.654;2023-04-27T09:25:21;98927.66;;;30.84;22.04
50672;BME280;46021;55.882;37.654;2023-04-27T09:27:49;98937.88;;;31.43;23.40
50672;BME280;46021;55.882;37.654;2023-04-27T09:30:17;98928.00;;;31.51;23.08
50672;BME280;46021;55.882;37.654;2023-04-27T09:32:54;98918.06;;;31.58;21.86
50672;BME280;46021;55.882;37.654;2023-04-27T09:35:23;98917.09;;;31.24;22.84
50672;BME280;46021;55.882;37.654;2023-04-27T09:37:52;98923.31;;;31.24;22.71
50672;BME280;46021;55.882;37.654;2023-04-27T09:40:21;98925.09;;;30.69;22.82
50672;BME280;46021;55.882;37.654;2023-04-27T09:42:51;98921.41;;;29.77;23.37
50672;BME280;46021;55.882;37.654;2023-04-27T09:45:18;98913.81;;;29.66;23.40
50672;BME280;46021;55.882;37.654;2023-04-27T09:47:46;98920.09;;;29.15;23.71
50672;BME280;46021;55.882;37.654;2023-04-27T09:50:13;98916.31;;;29.46;23.83
50672;BME280;46021;55.882;37.654;2023-04-27T09:52:41;98913.75;;;29.74;23.68
50672;BME280;46021;55.882;37.654;2023-04-27T09:55:12;98914.97;;;29.93;22.81
50672;BME280;46021;55.882;37.654;2023-04-27T09:57:50;98921.91;;;30.09;23.02
50672;BME280;46021;55.882;37.654;2023-04-27T10:00:31;98914.31;;;29.33;22.47
50672;BME280;46021;55.882;37.654;2023-04-27T10:03:14;98918.88;;;29.18;22.96
50672;BME280;46021;55.882;37.654;2023-04-27T10:08:43;98908.72;;;29.71;23.47
50672;BME280;46021;55.882;37.654;2023-04-27T10:11:16;98914.44;;;30.04;22.56
50672;BME280;46021;55.882;37.654;2023-04-27T10:13:50;98922.56;;;30.11;22.73
50672;BME280;46021;55.882;37.654;2023-04-27T10:16:19;98908.78;;;28.60;24.03
50672;BME280;46021;55.882;37.654;2023-04-27T10:18:50;98922.69;;;27.56;24.90
50672;BME280;46021;55.882;37.654;2023-04-27T10:21:18;98920.66;;;27.58;25.81
50672;BME280;46021;55.882;37.654;2023-04-27T10:23:46;98920.41;;;27.45;25.25
50672;BME280;46021;55.882;37.654;2023-04-27T10:26:23;98913.38;;;26.24;25.97
50672;BME280;46021;55.882;37.654;2023-04-27T10:28:59;98905.91;;;24.93;27.28
50672;BME280;46021;55.882;37.654;2023-04-27T10:31:30;98907.47;;;23.99;27.98
50672;BME280;46021;55.882;37.654;2023-04-27T10:34:08;98915.06;;;23.30;29.20
50672;BME280;46021;55.882;37.654;2023-04-27T10:36:37;98925.63;;;23.22;29.86
50672;BME280;46021;55.882;37.654;2023-04-27T10:39:15;98910.03;;;23.91;29.88
50672;BME280;46021;55.882;37.654;2023-04-27T10:41:52;98909.03;;;24.10;29.23
50672;BME280;46021;55.882;37.654;2023-04-27T10:44:24;98922.56;;;23.63;29.58
50672;BME280;46021;55.882;37.654;2023-04-27T10:46:52;98915.81;;;22.95;30.21
50672;BME280;46021;55.882;37.654;2023-04-27T10:49:20;98899.91;;;22.48;30.47
50672;BME280;46021;55.882;37.654;2023-04-27T10:51:49;98909.41;;;22.11;31.41
50672;BME280;46021;55.882;37.654;2023-04-27T10:54:16;98927.44;;;21.59;32.34
50672;BME280;46021;55.882;37.654;2023-04-27T10:56:43;98916.47;;;21.23;32.55
50672;BME280;46021;55.882;37.654;2023-04-27T10:59:12;98913.44;;;20.97;32.78
50672;BME280;46021;55.882;37.654;2023-04-27T11:01:39;98912.84;;;20.83;32.53
50672;BME280;46021;55.882;37.654;2023-04-27T11:04:07;98900.97;;;20.78;32.73
50672;BME280;46021;55.882;37.654;2023-04-27T11:06:41;98907.22;;;20.77;33.21
50672;BME280;46021;55.882;37.654;2023-04-27T11:09:09;98904.31;;;20.80;33.35
50672;BME280;46021;55.882;37.654;2023-04-27T11:11:37;98911.97;;;20.83;34.20
50672;BME280;46021;55.882;37.654;2023-04-27T11:14:04;98902.53;;;20.90;33.57
50672;BME280;46021;55.882;37.654;2023-04-27T11:16:34;98919.31;;;20.70;33.69
50672;BME280;46021;55.882;37.654;2023-04-27T11:19:04;98916.81;;;20.68;33.19
50672;BME280;46021;55.882;37.654;2023-04-27T11:21:31;98939.84;;;20.35;33.63
50672;BME280;46021;55.882;37.654;2023-04-27T11:24:03;98920.56;;;20.23;33.86
50672;BME280;46021;55.882;37.654;2023-04-27T11:26:31;98925.38;;;19.97;34.08
50672;BME280;46021;55.882;37.654;2023-04-27T11:28:58;98927.25;;;19.85;35.55
50672;BME280;46021;55.882;37.654;2023-04-27T11:31:26;98942.56;;;19.59;35.89
50672;BME280;46021;55.882;37.654;2023-04-27T11:33:55;98945.09;;;19.61;36.13
50672;BME280;46021;55.882;37.654;2023-04-27T11:36:22;98939.13;;;19.47;36.49
50672;BME280;46021;55.882;37.654;2023-04-27T11:38:56;98938.78;;;20.05;36.20
50672;BME280;46021;55.882;37.654;2023-04-27T11:41:32;98938.28;;;21.06;35.25
50672;BME280;46021;55.882;37.654;2023-04-27T11:44:04;98937.78;;;21.82;34.33
50672;BME280;46021;55.882;37.654;2023-04-27T11:46:33;98937.94;;;22.29;33.27
50672;BME280;46021;55.882;37.654;2023-04-27T11:49:04;98945.47;;;21.85;33.36
50672;BME280;46021;55.882;37.654;2023-04-27T11:51:33;98944.50;;;21.26;34.89
50672;BME280;46021;55.882;37.654;2023-04-27T11:54:01;98953.22;;;21.07;34.75
50672;BME280;46021;55.882;37.654;2023-04-27T11:56:35;98947.28;;;20.83;34.85
50672;BME280;46021;55.882;37.654;2023-04-27T11:59:03;98958.25;;;20.37;34.50
50672;BME280;46021;55.882;37.654;2023-04-27T12:01:32;98944.56;;;19.67;35.60
50672;BME280;46021;55.882;37.654;2023-04-27T12:03:59;98947.09;;;19.14;36.51
50672;BME280;46021;55.882;37.654;2023-04-27T12:06:29;98948.53;;;18.84;36.63
50672;BME280;46021;55.882;37.654;2023-04-27T12:08:56;98950.19;;;18.74;37.07
50672;BME280;46021;55.882;37.654;2023-04-27T12:11:24;98952.50;;;18.89;37.35
50672;BME280;46021;55.882;37.654;2023-04-27T12:13:52;98940.69;;;19.39;37.79
50672;BME280;46021;55.882;37.654;2023-04-27T12:16:19;98944.06;;;20.38;37.08
50672;BME280;46021;55.882;37.654;2023-04-27T12:18:48;98945.97;;;21.09;35.25
50672;BME280;46021;55.882;37.654;2023-04-27T12:21:16;98947.09;;;21.47;35.30
50672;BME280;46021;55.882;37.654;2023-04-27T12:23:45;98938.75;;;21.61;34.23
50672;BME280;46021;55.882;37.654;2023-04-27T12:26:12;98947.69;;;21.79;34.24
50672;BME280;46021;55.882;37.654;2023-04-27T12:28:39;98932.34;;;22.12;34.56
50672;BME280;46021;55.882;37.654;2023-04-27T12:31:07;98939.84;;;22.56;34.46
50672;BME280;46021;55.882;37.654;2023-04-27T12:33:34;98938.31;;;23.01;33.79
50672;BME280;46021;55.882;37.654;2023-04-27T12:36:01;98934.97;;;23.26;32.76
50672;BME280;46021;55.882;37.654;2023-04-27T12:38:28;98931.63;;;23.24;32.96
50672;BME280;46021;55.882;37.654;2023-04-27T12:40:57;98932.31;;;23.26;33.11
50672;BME280;46021;55.882;37.654;2023-04-27T12:43:25;98935.84;;;22.80;33.32
50672;BME280;46021;55.882;37.654;2023-04-27T12:45:53;98930.53;;;22.80;33.31
50672;BME280;46021;55.882;37.654;2023-04-27T12:48:20;98929.47;;;22.63;33.31
50672;BME280;46021;55.882;37.654;2023-04-27T12:50:48;98911.69;;;22.06;33.51
50672;BME280;46021;55.882;37.654;2023-04-27T12:53:15;98914.75;;;21.92;33.93
50672;BME280;46021;55.882;37.654;2023-04-27T12:55:42;98925.94;;;21.86;34.60
50672;BME280;46021;55.882;37.654;2023-04-27T12:58:11;98919.22;;;21.82;34.69
50672;BME280;46021;55.882;37.654;2023-04-27T13:00:39;98916.13;;;21.96;34.45
50672;BME280;46021;55.882;37.654;2023-04-27T13:03:06;98920.59;;;22.05;34.57